Time;durP1;ratioP1;P1;durP2;ratioP2;P2;SDS_P1;SDS_P2;PMS_P1;PMS_P2;Temp;Humidity;BMP_temperature;BMP_pressure;BME280_temperature;BME280_humidity;BME280_pressure;Samples;Min_cycle;Max_cycle;Signal;HPM_P1;HPM_P2
2021/12/05 00:16:52;;;;;;;46.42;21.23;;;;;;;;;;5018546;28;20038;-59
2021/12/05 00:22:32;;;;;;;20.90;13.13;;;;;;;;;;5029435;28;20038;-59
2021/12/05 00:24:59;;;;;;;26.30;13.20;;;;;;;;;;5031188;28;20028;-59
2021/12/05 00:27:37;;;;;;;27.52;12.52;;;;;;;;;;5034829;28;20455;-58
2021/12/05 00:33:05;;;;;;;;;;;;;;;;;;5045463;28;20075;-59
2021/12/05 00:43:57;;;;;;;17.70;9.98;;;;;;;;;;5052985;28;20036;-58
2021/12/05 00:55:00;;;;;;;16.85;8.82;;;;;;;;;;5053103;28;20033;-58
2021/12/05 01:05:48;;;;;;;15.07;8.20;;;;;;;;;;5053169;28;20048;-58
2021/12/05 01:13:34;;;;;;;21.67;9.48;;;;;;;;;;5034228;28;20400;-58
2021/12/05 01:16:02;;;;;;;17.23;8.93;;;;;;;;;;5038904;28;20029;-58
2021/12/05 01:18:28;;;;;;;19.75;9.63;;;;;;;;;;5053770;28;20160;-58
2021/12/05 01:20:56;;;;;;;18.70;8.23;;;;;;;;;;5052241;28;20060;-58
2021/12/05 01:23:31;;;;;;;20.15;9.25;;;;;;;;;;5054073;28;20025;-58
2021/12/05 01:26:14;;;;;;;18.95;7.93;;;;;;;;;;5052169;28;20399;-58
2021/12/05 01:36:24;;;;;;;25.10;8.82;;;;;;;;;;5032507;28;20136;-59
2021/12/05 01:39:20;;;;;;;30.58;10.13;;;;;;;;;;5033865;28;20391;-58
2021/12/05 01:44:47;;;;;;;20.02;8.20;;;;;;;;;;5032409;28;20033;-59
2021/12/05 02:00:42;;;;;;;15.32;7.38;;;;;;;;;;5051826;28;20041;-59
2021/12/05 02:45:27;;;;;;;;;;;;;;;;;;5031545;28;20125;-58
2021/12/05 02:47:53;;;;;;;42.63;12.07;;;;;;;;;;5042091;28;20000;-58
2021/12/05 02:50:21;;;;;;;23.27;10.27;;;;;;;;;;5050063;28;20053;-58
2021/12/05 02:52:46;;;;;;;22.90;8.75;;;;;;;;;;5052583;28;20138;-58
2021/12/05 02:55:16;;;;;;;18.15;6.55;;;;;;;;;;5049010;28;20481;-58
2021/12/05 03:00:11;;;;;;;16.08;8.63;;;;;;;;;;5031087;28;20564;-58
2021/12/05 03:02:42;;;;;;;29.85;11.88;;;;;;;;;;5032649;28;20025;-59
2021/12/05 03:05:11;;;;;;;16.25;8.02;;;;;;;;;;5029842;28;20040;-58
2021/12/05 03:07:42;;;;;;;18.67;9.38;;;;;;;;;;5040113;28;20024;-58
2021/12/05 03:10:08;;;;;;;19.95;8.02;;;;;;;;;;5050123;28;20561;-58
2021/12/05 03:12:35;;;;;;;30.67;10.10;;;;;;;;;;5051798;28;20353;-59
2021/12/05 03:15:02;;;;;;;16.95;6.82;;;;;;;;;;5043423;28;20113;-59
2021/12/05 03:17:27;;;;;;;13.43;7.07;;;;;;;;;;5037382;28;20047;-59
2021/12/05 03:19:53;;;;;;;26.20;7.37;;;;;;;;;;5050371;28;20496;-59
2021/12/05 03:22:18;;;;;;;25.70;7.78;;;;;;;;;;5051580;28;20420;-59
2021/12/05 03:24:44;;;;;;;15.35;7.90;;;;;;;;;;5049618;28;20036;-59
2021/12/05 03:27:10;;;;;;;23.27;9.02;;;;;;;;;;5046989;28;20025;-59
2021/12/05 03:29:35;;;;;;;15.37;7.07;;;;;;;;;;5030045;28;20037;-59
2021/12/05 03:32:00;;;;;;;17.47;7.03;;;;;;;;;;5031587;28;20930;-59
2021/12/05 03:34:26;;;;;;;31.58;8.77;;;;;;;;;;5030192;28;20459;-58
2021/12/05 03:36:52;;;;;;;23.35;9.23;;;;;;;;;;5033419;28;20063;-59
2021/12/05 03:39:18;;;;;;;28.27;10.20;;;;;;;;;;5049206;28;20052;-59
2021/12/05 03:41:43;;;;;;;18.90;7.25;;;;;;;;;;5051760;28;20106;-58
2021/12/05 03:44:09;;;;;;;20.23;7.95;;;;;;;;;;5047803;28;20091;-58
2021/12/05 03:46:35;;;;;;;17.20;7.32;;;;;;;;;;5030813;28;20068;-58
2021/12/05 03:49:02;;;;;;;12.02;5.97;;;;;;;;;;5050402;28;20025;-58
2021/12/05 03:51:29;;;;;;;29.08;9.68;;;;;;;;;;5043449;28;20116;-59
2021/12/05 03:53:55;;;;;;;24.25;7.30;;;;;;;;;;5050963;28;20060;-59
2021/12/05 03:56:21;;;;;;;42.20;8.07;;;;;;;;;;5049616;28;20060;-59
2021/12/05 03:58:47;;;;;;;19.50;6.65;;;;;;;;;;5032980;28;20057;-59
2021/12/05 04:01:12;;;;;;;22.52;7.20;;;;;;;;;;5030353;28;20451;-59
2021/12/05 04:03:38;;;;;;;25.95;6.25;;;;;;;;;;5031095;28;20024;-59
2021/12/05 04:06:04;;;;;;;29.20;6.97;;;;;;;;;;5029897;28;20428;-58
2021/12/05 04:08:30;;;;;;;26.38;9.27;;;;;;;;;;5045386;28;20036;-58
2021/12/05 04:10:57;;;;;;;21.77;6.03;;;;;;;;;;5049718;28;20519;-58
2021/12/05 04:13:23;;;;;;;15.93;7.40;;;;;;;;;;5051089;28;20016;-59
2021/12/05 04:15:51;;;;;;;27.02;8.65;;;;;;;;;;5048464;28;20670;-57
2021/12/05 04:18:17;;;;;;;20.57;6.83;;;;;;;;;;5037538;28;20029;-58
2021/12/05 04:20:43;;;;;;;17.55;5.50;;;;;;;;;;5033155;28;21024;-59
2021/12/05 04:23:08;;;;;;;30.55;8.35;;;;;;;;;;5050528;28;20100;-59
2021/12/05 04:25:37;;;;;;;22.33;9.23;;;;;;;;;;5049237;28;20060;-59
2021/12/05 04:28:03;;;;;;;18.20;7.38;;;;;;;;;;5039224;28;20451;-60
2021/12/05 04:30:28;;;;;;;10.05;7.07;;;;;;;;;;5028850;28;20400;-59
2021/12/05 04:32:54;;;;;;;16.97;7.47;;;;;;;;;;5030894;28;20017;-59
2021/12/05 04:35:19;;;;;;;13.05;6.90;;;;;;;;;;5033228;28;20462;-59
2021/12/05 04:37:45;;;;;;;16.05;7.22;;;;;;;;;;5040912;28;20021;-59
2021/12/05 04:40:11;;;;;;;12.63;7.05;;;;;;;;;;5047144;28;20511;-59
2021/12/05 04:42:37;;;;;;;24.55;7.07;;;;;;;;;;5050782;28;20013;-59
2021/12/05 04:45:06;;;;;;;14.00;7.13;;;;;;;;;;5037288;28;20421;-60
2021/12/05 04:47:32;;;;;;;26.27;9.65;;;;;;;;;;5037485;28;20025;-60
2021/12/05 04:49:57;;;;;;;16.23;6.97;;;;;;;;;;5049064;28;20060;-59
2021/12/05 04:52:22;;;;;;;16.60;9.35;;;;;;;;;;5048560;28;20025;-59
2021/12/05 04:54:47;;;;;;;19.80;4.80;;;;;;;;;;5049312;28;20033;-59
2021/12/05 04:57:13;;;;;;;20.10;6.53;;;;;;;;;;5034466;28;20025;-59
2021/12/05 04:59:44;;;;;;;24.30;6.78;;;;;;;;;;5028851;28;20452;-59
2021/12/05 05:02:09;;;;;;;6.82;5.18;;;;;;;;;;5031077;28;20026;-59
2021/12/05 05:04:44;;;;;;;12.52;6.53;;;;;;;;;;5029112;28;20026;-59
2021/12/05 05:07:15;;;;;;;27.20;5.95;;;;;;;;;;5046062;28;20029;-59
2021/12/05 05:09:41;;;;;;;16.40;7.53;;;;;;;;;;5049299;28;20433;-59
2021/12/05 05:12:06;;;;;;;24.48;8.05;;;;;;;;;;5050622;28;20068;-59
2021/12/05 05:14:31;;;;;;;21.85;6.75;;;;;;;;;;5041275;28;20037;-58
2021/12/05 05:16:57;;;;;;;25.70;6.78;;;;;;;;;;5044118;28;20032;-58
2021/12/05 05:19:27;;;;;;;26.42;9.48;;;;;;;;;;5048508;28;20492;-59
2021/12/05 05:22:11;;;;;;;10.02;5.97;;;;;;;;;;5035767;28;20021;-59
2021/12/05 05:30:34;;;;;;;12.30;7.68;;;;;;;;;;5052447;28;20029;-59
2021/12/05 05:41:43;;;;;;;8.43;6.72;;;;;;;;;;5039420;28;20438;-59
2021/12/05 05:51:56;;;;;;;11.48;7.85;;;;;;;;;;5024418;28;20168;-59
2021/12/05 05:54:21;;;;;;;22.90;9.37;;;;;;;;;;5032092;28;20484;-59
2021/12/05 05:56:48;;;;;;;23.05;7.93;;;;;;;;;;5045960;28;20029;-59
2021/12/05 05:59:21;;;;;;;15.35;8.23;;;;;;;;;;5051533;28;20361;-59
2021/12/05 06:04:14;;;;;;;16.08;8.35;;;;;;;;;;5044429;28;20048;-59
2021/12/05 06:06:39;;;;;;;11.27;6.82;;;;;;;;;;5042284;28;20484;-59
2021/12/05 06:09:04;;;;;;;13.90;6.43;;;;;;;;;;5036397;28;20022;-59
2021/12/05 06:11:29;;;;;;;19.42;8.95;;;;;;;;;;5032631;28;21092;-59
2021/12/05 06:13:55;;;;;;;15.23;6.30;;;;;;;;;;5040352;28;20016;-59
2021/12/05 06:16:20;;;;;;;16.33;10.07;;;;;;;;;;5045791;28;20910;-58
2021/12/05 06:18:46;;;;;;;9.65;8.07;;;;;;;;;;5042352;28;20108;-59
2021/12/05 06:21:12;;;;;;;17.45;6.97;;;;;;;;;;5035199;28;20048;-59
2021/12/05 06:23:37;;;;;;;12.73;7.03;;;;;;;;;;5046561;28;20032;-59
2021/12/05 06:26:03;;;;;;;16.60;7.45;;;;;;;;;;5043073;28;20029;-59
2021/12/05 06:28:41;;;;;;;25.30;10.50;;;;;;;;;;5032193;28;21512;-59
2021/12/05 06:31:25;;;;;;;13.73;7.13;;;;;;;;;;5039967;28;20531;-59
2021/12/05 06:47:03;;;;;;;7.78;6.43;;;;;;;;;;5048603;28;20028;-59
2021/12/05 06:49:28;;;;;;;16.75;8.25;;;;;;;;;;5047758;28;20036;-59
2021/12/05 06:51:53;;;;;;;12.23;7.00;;;;;;;;;;5049833;28;20016;-59
2021/12/05 06:54:19;;;;;;;9.97;6.20;;;;;;;;;;5049917;28;20052;-60
2021/12/05 06:56:44;;;;;;;18.35;6.93;;;;;;;;;;5037562;28;20440;-60
2021/12/05 06:59:09;;;;;;;17.25;6.57;;;;;;;;;;5029061;28;20067;-58
2021/12/05 07:01:34;;;;;;;12.30;6.33;;;;;;;;;;5035129;28;20013;-59
2021/12/05 07:04:07;;;;;;;13.25;6.95;;;;;;;;;;5047410;28;20439;-59
2021/12/05 07:06:33;;;;;;;6.93;5.57;;;;;;;;;;5027900;28;20044;-59
2021/12/05 07:09:05;;;;;;;18.13;6.70;;;;;;;;;;5047762;28;20025;-59
2021/12/05 07:14:43;;;;;;;16.20;7.63;;;;;;;;;;4979231;28;20121;-59
2021/12/05 07:22:21;;;;;;;13.50;7.40;;;;;;;;;;5048734;28;20491;-58
2021/12/05 07:24:54;;;;;;;10.07;8.02;;;;;;;;;;5049529;28;20048;-58
2021/12/05 07:40:56;;;;;;;13.68;7.30;;;;;;;;;;5030904;28;20121;-58
2021/12/05 07:43:21;;;;;;;15.13;6.28;;;;;;;;;;5035309;28;20096;-58
2021/12/05 07:45:55;;;;;;;6.05;5.05;;;;;;;;;;5045854;28;20072;-58
2021/12/05 07:48:26;;;;;;;16.17;5.80;;;;;;;;;;5050902;28;20079;-59
2021/12/05 07:51:20;;;;;;;19.85;7.28;;;;;;;;;;5046962;28;20520;-58
2021/12/05 07:54:05;;;;;;;24.77;7.68;;;;;;;;;;5030138;28;20083;-58
2021/12/05 07:56:53;;;;;;;13.75;5.88;;;;;;;;;;5032052;28;20025;-58
2021/12/05 08:15:32;;;;;;;12.35;8.25;;;;;;;;;;5041751;28;20094;-57
2021/12/05 08:17:58;;;;;;;12.85;5.57;;;;;;;;;;5043297;28;20090;-57
2021/12/05 08:20:43;;;;;;;7.53;4.45;;;;;;;;;;5040174;28;20064;-58
2021/12/05 08:23:09;;;;;;;8.93;4.88;;;;;;;;;;5031162;28;20065;-57
2021/12/05 08:25:36;;;;;;;10.55;5.82;;;;;;;;;;5028975;28;20068;-57
2021/12/05 08:28:32;;;;;;;7.53;4.13;;;;;;;;;;5029739;28;20076;-57
2021/12/05 08:31:10;;;;;;;6.90;3.88;;;;;;;;;;5040226;28;20235;-57
2021/12/05 08:37:09;;;;;;;8.07;4.90;;;;;;;;;;5006454;28;20065;-57
2021/12/05 09:20:41;;;;;;;10.60;5.80;;;;;;;;;;5050938;28;20040;-57
2021/12/05 09:31:02;;;;;;;7.53;4.10;;;;;;;;;;5038357;28;20120;-57
2021/12/05 09:39:34;;;;;;;6.10;3.50;;;;;;;;;;5033926;28;20036;-56
2021/12/05 10:06:46;;;;;;;;;;;;;;;;;;5051423;28;20044;-57
2021/12/05 10:09:32;;;;;;;11.32;5.40;;;;;;;;;;5033217;28;20033;-57
2021/12/05 10:12:20;;;;;;;7.32;5.25;;;;;;;;;;5010487;28;20053;-56
2021/12/05 10:20:12;;;;;;;7.45;4.32;;;;;;;;;;5030039;28;20452;-56
2021/12/05 10:36:06;;;;;;;6.88;5.30;;;;;;;;;;5030957;28;20041;-57
2021/12/05 10:38:52;;;;;;;7.03;5.10;;;;;;;;;;5015951;28;20022;-57
2021/12/05 10:43:52;;;;;;;12.35;6.72;;;;;;;;;;5038497;28;20061;-57
2021/12/05 10:46:18;;;;;;;7.68;6.28;;;;;;;;;;5041802;28;20034;-57
2021/12/05 10:49:04;;;;;;;8.52;5.75;;;;;;;;;;5030276;28;20028;-57
2021/12/05 10:51:35;;;;;;;8.85;5.90;;;;;;;;;;5029666;28;20053;-57
2021/12/05 10:54:03;;;;;;;7.90;5.32;;;;;;;;;;5033245;28;20044;-57
2021/12/05 10:56:34;;;;;;;10.85;5.40;;;;;;;;;;5038331;28;20450;-56
2021/12/05 10:59:03;;;;;;;11.30;7.10;;;;;;;;;;5048712;28;20387;-56
2021/12/05 11:01:34;;;;;;;8.35;5.88;;;;;;;;;;5032090;28;20080;-57
2021/12/05 11:04:02;;;;;;;13.88;5.75;;;;;;;;;;5031851;28;20044;-56
2021/12/05 11:06:29;;;;;;;5.87;5.23;;;;;;;;;;5030578;28;20092;-57
2021/12/05 11:08:56;;;;;;;12.75;6.95;;;;;;;;;;5032028;28;20399;-57
2021/12/05 11:11:22;;;;;;;7.93;7.00;;;;;;;;;;5029863;28;20041;-56
2021/12/05 11:13:47;;;;;;;8.52;6.05;;;;;;;;;;5043825;28;20055;-57
2021/12/05 11:16:32;;;;;;;10.68;6.25;;;;;;;;;;5020506;28;20061;-57
2021/12/05 11:18:57;;;;;;;9.85;7.43;;;;;;;;;;5031623;28;20025;-56
2021/12/05 11:21:33;;;;;;;13.40;7.32;;;;;;;;;;5029992;28;20096;-56
2021/12/05 11:24:08;;;;;;;11.30;6.17;;;;;;;;;;5025866;28;20049;-56
2021/12/05 11:26:34;;;;;;;8.00;6.05;;;;;;;;;;5020450;28;20041;-56
2021/12/05 11:28:59;;;;;;;12.45;6.55;;;;;;;;;;5011957;28;20033;-56
2021/12/05 11:31:25;;;;;;;19.80;7.88;;;;;;;;;;5029193;28;20041;-57
2021/12/05 11:33:54;;;;;;;9.70;6.93;;;;;;;;;;5050702;28;20146;-57
2021/12/05 11:36:22;;;;;;;7.15;6.30;;;;;;;;;;5042659;28;20044;-57
2021/12/05 11:38:47;;;;;;;8.07;5.73;;;;;;;;;;5045855;28;20423;-57
2021/12/05 11:41:15;;;;;;;10.77;7.32;;;;;;;;;;5049868;28;20025;-57
2021/12/05 11:43:42;;;;;;;12.75;6.35;;;;;;;;;;5051373;28;20063;-57
2021/12/05 11:46:08;;;;;;;11.90;7.45;;;;;;;;;;5048558;28;20574;-57
2021/12/05 11:48:36;;;;;;;9.52;5.95;;;;;;;;;;5050958;28;20035;-57
2021/12/05 11:51:15;;;;;;;8.93;5.72;;;;;;;;;;5049437;28;20052;-57
2021/12/05 11:53:43;;;;;;;8.68;6.18;;;;;;;;;;5050593;28;20540;-57
2021/12/05 11:56:09;;;;;;;11.13;7.25;;;;;;;;;;5049491;28;20045;-57
2021/12/05 11:58:34;;;;;;;12.90;7.13;;;;;;;;;;5050802;28;20526;-57
2021/12/05 12:01:07;;;;;;;12.60;6.85;;;;;;;;;;5049146;28;20036;-57
2021/12/05 12:03:34;;;;;;;9.35;7.03;;;;;;;;;;5050831;28;20074;-57
2021/12/05 12:06:00;;;;;;;10.43;6.85;;;;;;;;;;5029749;28;20523;-57
2021/12/05 12:08:25;;;;;;;8.82;7.85;;;;;;;;;;5030433;28;20029;-57
2021/12/05 12:10:57;;;;;;;10.60;7.78;;;;;;;;;;5029602;28;20450;-57
2021/12/05 12:13:25;;;;;;;10.95;6.47;;;;;;;;;;5030964;28;20033;-57
2021/12/05 12:15:59;;;;;;;8.25;7.25;;;;;;;;;;5045978;28;20037;-57
2021/12/05 12:18:28;;;;;;;14.85;9.30;;;;;;;;;;5050662;28;20025;-57
2021/12/05 12:20:54;;;;;;;13.63;9.23;;;;;;;;;;5049428;28;20037;-57
2021/12/05 12:23:20;;;;;;;16.23;8.93;;;;;;;;;;5050383;28;20056;-57
2021/12/05 12:25:47;;;;;;;19.08;11.32;;;;;;;;;;5049280;28;20036;-57
2021/12/05 12:28:12;;;;;;;11.05;9.90;;;;;;;;;;5032824;28;20017;-57
2021/12/05 12:30:42;;;;;;;17.02;10.95;;;;;;;;;;5028582;28;20048;-57
2021/12/05 12:33:13;;;;;;;19.05;13.82;;;;;;;;;;5030707;28;20026;-57
2021/12/05 12:35:38;;;;;;;20.20;15.20;;;;;;;;;;5036310;28;20041;-56
2021/12/05 12:38:08;;;;;;;18.65;14.50;;;;;;;;;;5041281;28;20021;-57
2021/12/05 12:40:35;;;;;;;20.20;14.40;;;;;;;;;;5051118;28;20029;-56
2021/12/05 12:43:00;;;;;;;18.42;13.52;;;;;;;;;;5039636;28;20384;-56
2021/12/05 12:45:26;;;;;;;17.58;14.75;;;;;;;;;;5043693;28;20036;-56
2021/12/05 12:47:53;;;;;;;15.45;12.18;;;;;;;;;;5034849;28;20028;-56
2021/12/05 12:50:24;;;;;;;14.65;12.95;;;;;;;;;;5037494;28;20046;-56
2021/12/05 12:52:55;;;;;;;17.52;13.75;;;;;;;;;;5036181;28;20029;-57
2021/12/05 12:55:20;;;;;;;23.98;14.40;;;;;;;;;;5050592;28;20036;-56
2021/12/05 12:57:46;;;;;;;15.63;14.02;;;;;;;;;;5054401;28;20409;-56
2021/12/05 13:00:15;;;;;;;14.82;13.27;;;;;;;;;;5052665;28;20033;-57
2021/12/05 13:05:40;;;;;;;31.55;15.85;;;;;;;;;;5051686;28;20400;-56
2021/12/05 13:10:57;;;;;;;18.77;14.77;;;;;;;;;;5032732;28;20045;-56
2021/12/05 13:13:25;;;;;;;22.23;13.05;;;;;;;;;;5035871;28;20013;-56
2021/12/05 13:15:53;;;;;;;15.73;13.38;;;;;;;;;;5052382;28;20041;-56
2021/12/05 13:18:20;;;;;;;16.10;14.23;;;;;;;;;;5046002;28;20025;-56
2021/12/05 13:20:56;;;;;;;18.30;14.43;;;;;;;;;;5052683;28;20029;-56
2021/12/05 13:23:27;;;;;;;15.43;13.85;;;;;;;;;;5051874;28;20023;-57
2021/12/05 13:25:59;;;;;;;17.35;14.57;;;;;;;;;;5052201;28;20525;-56
2021/12/05 13:28:34;;;;;;;21.23;16.02;;;;;;;;;;5045297;28;20100;-56
2021/12/05 13:31:00;;;;;;;16.17;14.25;;;;;;;;;;5031886;28;20033;-56
2021/12/05 13:33:28;;;;;;;19.10;15.02;;;;;;;;;;5033579;28;20087;-56
2021/12/05 13:35:58;;;;;;;19.03;13.13;;;;;;;;;;5032450;28;20030;-55
2021/12/05 13:38:35;;;;;;;18.23;13.63;;;;;;;;;;5033071;28;20420;-56
2021/12/05 13:41:19;;;;;;;15.65;12.98;;;;;;;;;;5033202;28;20029;-56
2021/12/05 13:43:57;;;;;;;17.10;12.23;;;;;;;;;;5033934;28;20022;-56
2021/12/05 13:46:33;;;;;;;19.30;14.73;;;;;;;;;;5034710;28;20033;-56
2021/12/05 13:49:00;;;;;;;12.50;11.27;;;;;;;;;;5042209;28;20539;-56
2021/12/05 13:51:26;;;;;;;17.27;13.40;;;;;;;;;;5051491;28;20106;-57
2021/12/05 13:53:51;;;;;;;16.70;13.15;;;;;;;;;;5052296;28;20410;-57
2021/12/05 13:56:21;;;;;;;16.05;11.50;;;;;;;;;;5051145;28;20040;-57
2021/12/05 13:58:47;;;;;;;18.00;11.23;;;;;;;;;;5053271;28;20025;-56
2021/12/05 14:01:14;;;;;;;14.50;10.60;;;;;;;;;;5051360;28;20029;-57
2021/12/05 14:03:45;;;;;;;13.32;12.02;;;;;;;;;;5038095;28;20479;-57
2021/12/05 14:06:29;;;;;;;16.85;12.10;;;;;;;;;;5037643;28;20124;-57
2021/12/05 14:08:58;;;;;;;25.30;13.10;;;;;;;;;;5037562;28;20091;-57
2021/12/05 14:11:24;;;;;;;17.38;12.30;;;;;;;;;;5031027;28;20500;-56
2021/12/05 14:13:49;;;;;;;17.08;13.88;;;;;;;;;;5034184;28;20079;-56
2021/12/05 14:16:15;;;;;;;13.03;11.73;;;;;;;;;;5033638;28;20041;-57
2021/12/05 14:18:40;;;;;;;19.02;13.15;;;;;;;;;;5032829;28;20456;-57
2021/12/05 14:21:11;;;;;;;17.40;12.50;;;;;;;;;;5031542;28;20045;-57
2021/12/05 14:23:36;;;;;;;13.75;11.23;;;;;;;;;;5037850;28;20388;-56
2021/12/05 14:26:12;;;;;;;17.70;12.57;;;;;;;;;;5040958;28;20033;-56
2021/12/05 14:28:37;;;;;;;13.20;11.90;;;;;;;;;;5032622;28;20404;-57
2021/12/05 14:31:02;;;;;;;16.13;11.18;;;;;;;;;;5031048;28;20040;-57
2021/12/05 14:33:27;;;;;;;15.40;11.77;;;;;;;;;;5044008;28;20036;-57
2021/12/05 14:35:52;;;;;;;15.80;13.13;;;;;;;;;;5051206;28;20479;-57
2021/12/05 14:38:18;;;;;;;13.90;10.97;;;;;;;;;;5051938;28;20420;-57
2021/12/05 14:40:43;;;;;;;17.53;12.60;;;;;;;;;;5051027;28;20087;-57
2021/12/05 14:43:10;;;;;;;15.23;12.35;;;;;;;;;;5043076;28;20532;-56
2021/12/05 14:45:37;;;;;;;15.90;14.20;;;;;;;;;;5046003;28;20033;-57
2021/12/05 14:48:05;;;;;;;14.02;11.18;;;;;;;;;;5052264;28;20017;-56
2021/12/05 14:50:32;;;;;;;16.90;12.98;;;;;;;;;;5031485;28;20042;-57
2021/12/05 14:52:58;;;;;;;20.40;12.93;;;;;;;;;;5039393;28;20078;-56
2021/12/05 14:55:24;;;;;;;14.98;12.18;;;;;;;;;;5050757;28;20087;-56
2021/12/05 14:57:51;;;;;;;12.85;11.52;;;;;;;;;;5052007;28;20021;-57
2021/12/05 15:00:25;;;;;;;13.85;12.48;;;;;;;;;;5050352;28;20025;-57
2021/12/05 15:03:03;;;;;;;15.20;12.05;;;;;;;;;;5052689;28;20017;-56
2021/12/05 15:05:28;;;;;;;18.20;12.15;;;;;;;;;;5040441;28;20057;-56
2021/12/05 15:08:01;;;;;;;14.17;12.57;;;;;;;;;;5032014;28;20119;-59
2021/12/05 15:10:26;;;;;;;15.00;13.30;;;;;;;;;;5030616;28;20033;-57
2021/12/05 15:12:52;;;;;;;17.67;10.77;;;;;;;;;;5032353;28;20369;-57
2021/12/05 15:15:17;;;;;;;14.45;11.77;;;;;;;;;;5044024;28;20017;-57
2021/12/05 15:17:43;;;;;;;13.80;11.32;;;;;;;;;;5041647;28;20010;-57
2021/12/05 15:20:19;;;;;;;17.05;13.02;;;;;;;;;;5030996;28;20029;-57
2021/12/05 15:22:46;;;;;;;18.05;12.75;;;;;;;;;;5037497;28;20020;-57
2021/12/05 15:25:13;;;;;;;21.05;14.70;;;;;;;;;;5050369;28;20032;-57
2021/12/05 15:27:38;;;;;;;22.17;15.25;;;;;;;;;;5051652;28;20020;-57
2021/12/05 15:30:06;;;;;;;29.45;18.58;;;;;;;;;;5038564;28;20042;-57
2021/12/05 15:32:32;;;;;;;30.65;17.90;;;;;;;;;;5032388;28;20093;-57
2021/12/05 15:34:59;;;;;;;26.92;17.48;;;;;;;;;;5030605;28;20480;-57
2021/12/05 15:37:24;;;;;;;21.58;16.13;;;;;;;;;;5031283;28;20025;-57
2021/12/05 15:39:51;;;;;;;20.30;16.88;;;;;;;;;;5030274;28;20558;-57
2021/12/05 15:42:19;;;;;;;26.10;18.02;;;;;;;;;;5031607;28;20033;-57
2021/12/05 15:44:44;;;;;;;21.70;17.90;;;;;;;;;;5040942;28;20029;-57
2021/12/05 15:47:11;;;;;;;24.77;15.93;;;;;;;;;;5051890;28;20387;-57
2021/12/05 15:49:51;;;;;;;23.80;16.55;;;;;;;;;;5036789;28;20049;-57
2021/12/05 15:52:19;;;;;;;21.60;19.38;;;;;;;;;;5032246;28;20065;-57
2021/12/05 15:54:45;;;;;;;32.40;19.02;;;;;;;;;;5050014;28;20484;-57
2021/12/05 15:57:14;;;;;;;27.52;16.95;;;;;;;;;;5051774;28;20070;-57
2021/12/05 15:59:42;;;;;;;;;;;;;;;;;;5048315;28;20037;-57
2021/12/05 16:02:10;;;;;;;24.40;18.23;;;;;;;;;;5051048;28;20266;-57
2021/12/05 16:04:35;;;;;;;17.13;14.15;;;;;;;;;;5030025;28;20037;-57
2021/12/05 16:07:01;;;;;;;29.02;23.40;;;;;;;;;;5030954;28;20094;-57
2021/12/05 16:09:27;;;;;;;30.67;18.60;;;;;;;;;;5029791;28;20021;-57
2021/12/05 16:12:03;;;;;;;22.75;19.20;;;;;;;;;;5030769;28;20465;-57
2021/12/05 16:14:30;;;;;;;23.40;19.08;;;;;;;;;;5037754;28;20037;-57
2021/12/05 16:16:55;;;;;;;29.15;22.63;;;;;;;;;;5051452;28;20025;-57
2021/12/05 16:19:20;;;;;;;21.83;19.60;;;;;;;;;;5049005;28;20442;-57
2021/12/05 16:21:45;;;;;;;27.13;20.52;;;;;;;;;;5050921;28;20024;-57
2021/12/05 16:24:15;;;;;;;33.90;19.23;;;;;;;;;;5032470;28;20032;-57
2021/12/05 16:26:41;;;;;;;19.38;17.45;;;;;;;;;;5031350;28;20029;-57
2021/12/05 16:29:17;;;;;;;19.20;16.88;;;;;;;;;;5030732;28;20036;-57
2021/12/05 16:31:43;;;;;;;25.08;20.20;;;;;;;;;;5010034;28;20600;-57
2021/12/05 16:34:11;;;;;;;24.67;19.65;;;;;;;;;;5011330;28;20101;-56
2021/12/05 16:36:56;;;;;;;23.13;19.45;;;;;;;;;;5010688;28;20061;-57
2021/12/05 16:39:38;;;;;;;20.48;17.45;;;;;;;;;;5010988;28;20065;-57
2021/12/05 16:42:06;;;;;;;20.38;18.38;;;;;;;;;;5031096;28;20503;-57
2021/12/05 16:44:34;;;;;;;25.43;20.53;;;;;;;;;;5030111;28;20039;-57
2021/12/05 16:47:08;;;;;;;18.30;15.57;;;;;;;;;;5031134;28;20059;-57
2021/12/05 16:49:35;;;;;;;34.60;22.38;;;;;;;;;;5030695;28;20053;-57
2021/12/05 16:52:14;;;;;;;27.52;19.95;;;;;;;;;;5050716;28;20172;-57
2021/12/05 16:54:45;;;;;;;23.88;21.50;;;;;;;;;;5049584;28;20566;-57
2021/12/05 16:57:11;;;;;;;23.02;20.02;;;;;;;;;;5050765;28;20025;-57
2021/12/05 16:59:36;;;;;;;25.00;21.88;;;;;;;;;;5035842;28;20068;-57
2021/12/05 17:02:12;;;;;;;29.20;22.17;;;;;;;;;;5039004;28;20053;-57
2021/12/05 17:04:43;;;;;;;28.30;22.40;;;;;;;;;;5039259;28;20488;-57
2021/12/05 17:07:13;;;;;;;25.23;22.40;;;;;;;;;;5031106;28;20080;-57
2021/12/05 17:09:38;;;;;;;24.63;19.73;;;;;;;;;;5040411;28;20061;-57
2021/12/05 17:12:03;;;;;;;27.00;19.88;;;;;;;;;;5050559;28;20490;-57
2021/12/05 17:14:28;;;;;;;20.92;18.88;;;;;;;;;;5041278;28;20045;-57
2021/12/05 17:16:55;;;;;;;23.95;21.40;;;;;;;;;;5044942;28;20045;-57
2021/12/05 17:19:23;;;;;;;28.63;20.17;;;;;;;;;;5042449;28;20357;-57
2021/12/05 17:21:49;;;;;;;27.35;18.83;;;;;;;;;;5030628;28;20056;-57
2021/12/05 17:24:16;;;;;;;24.95;18.05;;;;;;;;;;5042119;28;20056;-57
2021/12/05 17:27:00;;;;;;;25.35;20.13;;;;;;;;;;5054194;28;20024;-57
2021/12/05 17:29:27;;;;;;;21.67;19.40;;;;;;;;;;5052504;28;20061;-57
2021/12/05 17:31:59;;;;;;;22.63;18.50;;;;;;;;;;5054199;28;20025;-57
2021/12/05 17:34:30;;;;;;;24.08;18.05;;;;;;;;;;5039441;28;20064;-57
2021/12/05 17:36:59;;;;;;;25.02;20.77;;;;;;;;;;5034263;28;20572;-57
2021/12/05 17:39:31;;;;;;;21.92;19.17;;;;;;;;;;5032533;28;20029;-57
2021/12/05 17:41:59;;;;;;;24.25;21.20;;;;;;;;;;5036030;28;20036;-57
2021/12/05 17:44:24;;;;;;;21.67;19.35;;;;;;;;;;5041356;28;20091;-57
2021/12/05 17:46:51;;;;;;;30.42;22.48;;;;;;;;;;5023748;28;20377;-56
2021/12/05 17:49:17;;;;;;;24.75;22.15;;;;;;;;;;5027139;28;20025;-57
2021/12/05 17:51:43;;;;;;;24.80;22.20;;;;;;;;;;5027630;28;20481;-57
2021/12/05 17:54:12;;;;;;;26.45;22.77;;;;;;;;;;5021316;28;20038;-56
2021/12/05 17:56:41;;;;;;;20.77;15.23;;;;;;;;;;5047042;28;20028;-57
2021/12/05 17:59:23;;;;;;;28.40;20.95;;;;;;;;;;5048942;28;20041;-57
2021/12/05 18:04:32;;;;;;;23.60;20.98;;;;;;;;;;5051373;28;20449;-56
2021/12/05 18:06:58;;;;;;;32.95;26.75;;;;;;;;;;5053189;28;20029;-57
2021/12/05 18:09:23;;;;;;;27.33;22.00;;;;;;;;;;5042859;28;20017;-57
2021/12/05 18:11:49;;;;;;;30.48;22.30;;;;;;;;;;5047177;28;20140;-57
2021/12/05 18:14:14;;;;;;;29.70;21.73;;;;;;;;;;5051337;28;20021;-57
2021/12/05 18:16:39;;;;;;;28.90;21.80;;;;;;;;;;5051201;28;20114;-57
2021/12/05 18:19:06;;;;;;;31.90;21.20;;;;;;;;;;5032761;28;20025;-57
2021/12/05 18:21:36;;;;;;;38.90;23.70;;;;;;;;;;5020777;28;20037;-57
2021/12/05 18:24:01;;;;;;;21.35;18.83;;;;;;;;;;5013667;28;20105;-57
2021/12/05 18:26:27;;;;;;;19.70;17.13;;;;;;;;;;5029958;28;20168;-57
2021/12/05 18:28:52;;;;;;;24.17;19.52;;;;;;;;;;5033222;28;20448;-57
2021/12/05 18:31:20;;;;;;;26.15;19.65;;;;;;;;;;5031155;28;20052;-57
2021/12/05 18:33:47;;;;;;;22.13;17.85;;;;;;;;;;5030990;28;20467;-57
2021/12/05 18:36:12;;;;;;;24.15;17.58;;;;;;;;;;5031432;28;20492;-57
2021/12/05 18:38:38;;;;;;;27.35;18.02;;;;;;;;;;5048739;28;20040;-57
2021/12/05 18:41:08;;;;;;;19.73;17.80;;;;;;;;;;5039328;28;20049;-57
2021/12/05 18:43:34;;;;;;;26.17;17.35;;;;;;;;;;5040819;28;20021;-57
2021/12/05 18:45:59;;;;;;;30.67;19.08;;;;;;;;;;5033247;28;20113;-57
2021/12/05 18:48:25;;;;;;;21.83;18.10;;;;;;;;;;5032121;28;20353;-57
2021/12/05 18:50:50;;;;;;;31.95;20.70;;;;;;;;;;5031040;28;20500;-57
2021/12/05 18:53:17;;;;;;;27.03;20.10;;;;;;;;;;5032076;28;20427;-57
2021/12/05 18:55:43;;;;;;;21.98;18.88;;;;;;;;;;5038398;28;20452;-57
2021/12/05 18:58:10;;;;;;;24.42;18.35;;;;;;;;;;5040338;28;20109;-57
2021/12/05 19:04:20;;;;;;;33.47;20.88;;;;;;;;;;5030628;28;20041;-57
2021/12/05 19:06:13;;;;;;;21.00;17.33;;;;;;;;;;5031085;28;20111;-57
2021/12/05 19:09:05;;;;;;;20.80;18.60;;;;;;;;;;5049095;28;20112;-57
2021/12/05 19:14:08;;;;;;;26.48;21.25;;;;;;;;;;5039525;28;20514;-57
2021/12/05 19:16:33;;;;;;;29.85;24.90;;;;;;;;;;5050463;28;20060;-57
2021/12/05 19:18:58;;;;;;;29.83;23.47;;;;;;;;;;5041342;28;20035;-57
2021/12/05 19:21:24;;;;;;;31.25;25.42;;;;;;;;;;5049995;28;20842;-57
2021/12/05 19:23:49;;;;;;;28.90;24.98;;;;;;;;;;5051991;28;20060;-57
2021/12/05 19:26:15;;;;;;;32.60;27.05;;;;;;;;;;5040901;28;20461;-57
2021/12/05 19:28:40;;;;;;;29.10;23.50;;;;;;;;;;5043992;28;20108;-57
2021/12/05 19:31:05;;;;;;;33.42;26.50;;;;;;;;;;5050155;28;20447;-58
2021/12/05 19:33:31;;;;;;;35.40;26.90;;;;;;;;;;5044261;28;20808;-57
2021/12/05 19:35:57;;;;;;;37.42;25.88;;;;;;;;;;5049939;28;20033;-57
2021/12/05 19:38:24;;;;;;;27.67;24.73;;;;;;;;;;5050919;28;20044;-57
2021/12/05 19:40:50;;;;;;;29.98;23.60;;;;;;;;;;5048193;28;20412;-57
2021/12/05 19:43:17;;;;;;;33.03;23.13;;;;;;;;;;5049690;28;20025;-57
2021/12/05 19:45:42;;;;;;;25.55;22.70;;;;;;;;;;5029537;28;20049;-57
2021/12/05 19:48:08;;;;;;;31.67;22.27;;;;;;;;;;5031301;28;20135;-57
2021/12/05 19:50:36;;;;;;;28.50;21.90;;;;;;;;;;5046712;28;20809;-57